Terminal Aerodrome Forecast
Issued by NWS Boston, MA

Home | Current Version | Previous Version | Text Only | Print | Product List | Glossary On
Versions: 1 2 3 4 5 6 7 8 9 10 11 12 13 14 15 16 17 18 19 20 21 22 23 24 25 26 27 28 29 30 31 32 33 34 35 36 37 38 39 40 41 42 43 44 45 46
000
FTUS41 KBOX 091730 AAC
TAFBOS
TAF AMD
KBOS 091730Z 0918/1024 02007KT P6SM BKN020
     FM100200 33005KT P6SM BKN060
     FM101400 29004KT P6SM VCSH OVC020
     FM102200 24005KT P6SM BKN008
     FM102300 23006KT P6SM BKN040=

USA.gov is the U.S. government's official web portal to all federal, state and local government web resources and services.